Time;durP1;ratioP1;P1;durP2;ratioP2;P2;SDS_P1;SDS_P2;PMS_P1;PMS_P2;Temp;Humidity;BMP_temperature;BMP_pressure;BME280_temperature;BME280_humidity;BME280_pressure;Samples;Min_cycle;Max_cycle;Signal;HPM_P1;HPM_P2
2023/04/09 00:00:15;;;;;;;28.00;25.00;;;11.40;95.60;;;;;;5053692;28;20907;-58
2023/04/09 00:02:42;;;;;;;32.87;27.43;;;11.30;95.50;;;;;;5053763;28;21017;-58
2023/04/09 00:05:10;;;;;;;27.50;24.40;;;11.20;95.50;;;;;;5053991;28;20484;-58
2023/04/09 00:07:37;;;;;;;28.60;24.50;;;11.20;95.50;;;;;;5053754;28;20970;-58
2023/04/09 00:10:04;;;;;;;30.33;26.13;;;11.10;95.60;;;;;;5054070;28;20460;-58
2023/04/09 00:12:30;;;;;;;29.73;25.70;;;11.10;95.70;;;;;;5053902;28;20453;-58
2023/04/09 00:14:57;;;;;;;29.13;24.90;;;11.10;95.80;;;;;;5053481;28;20836;-58
2023/04/09 00:17:24;;;;;;;28.53;24.87;;;11.10;95.90;;;;;;5053841;28;20449;-58
2023/04/09 00:19:52;;;;;;;34.23;27.50;;;11.00;95.90;;;;;;5053451;28;20972;-58
2023/04/09 00:22:20;;;;;;;28.37;25.30;;;11.00;95.90;;;;;;5053634;28;20485;-58
2023/04/09 00:24:46;;;;;;;28.57;24.07;;;11.00;95.90;;;;;;5053362;28;21041;-58
2023/04/09 00:27:13;;;;;;;28.63;22.97;;;10.90;95.80;;;;;;5053660;28;20453;-58
2023/04/09 00:29:40;;;;;;;24.07;21.50;;;10.80;95.50;;;;;;5053630;28;20448;-58
2023/04/09 00:32:07;;;;;;;24.63;21.93;;;10.70;95.40;;;;;;5053286;28;20856;-58
2023/04/09 00:34:33;;;;;;;25.37;22.20;;;10.60;95.10;;;;;;5053644;28;20466;-58
2023/04/09 00:37:00;;;;;;;27.50;22.60;;;10.50;95.00;;;;;;5053044;28;20453;-58
2023/04/09 00:39:28;;;;;;;24.63;20.97;;;10.40;95.00;;;;;;5053502;28;20450;-58
2023/04/09 00:41:58;;;;;;;28.00;21.83;;;10.30;95.00;;;;;;5053010;28;20503;-58
2023/04/09 00:44:25;;;;;;;23.80;20.30;;;10.30;95.00;;;;;;5053328;28;20473;-58
2023/04/09 00:46:52;;;;;;;26.90;21.43;;;10.20;95.00;;;;;;5053591;28;20536;-58
2023/04/09 00:49:19;;;;;;;29.70;22.03;;;10.20;95.20;;;;;;5053425;28;20445;-58
2023/04/09 00:51:46;;;;;;;24.10;20.67;;;10.10;95.20;;;;;;5053347;28;20481;-58
2023/04/09 00:54:14;;;;;;;25.50;21.37;;;10.10;95.30;;;;;;5052925;28;21006;-58
2023/04/09 00:56:43;;;;;;;23.27;20.53;;;10.00;95.40;;;;;;5053232;28;20507;-58
2023/04/09 00:59:10;;;;;;;25.07;20.90;;;10.00;95.50;;;;;;5053201;28;20476;-58
2023/04/09 01:01:37;;;;;;;26.57;21.30;;;10.00;95.70;;;;;;5053201;28;20577;-58
2023/04/09 01:04:04;;;;;;;24.60;21.80;;;10.00;96.00;;;;;;5053134;28;20474;-58
2023/04/09 01:06:37;;;;;;;30.40;25.10;;;10.00;96.30;;;;;;5053215;28;20452;-58
2023/04/09 01:09:09;;;;;;;28.13;21.50;;;10.10;96.60;;;;;;5052983;28;20930;-58
2023/04/09 01:11:41;;;;;;;27.07;22.70;;;10.10;96.90;;;;;;5053189;28;20426;-58
2023/04/09 01:14:20;;;;;;;27.87;23.70;;;10.10;97.10;;;;;;5053103;28;20504;-58
2023/04/09 01:16:52;;;;;;;28.20;22.40;;;10.10;97.20;;;;;;5053182;28;20441;-58
2023/04/09 01:19:30;;;;;;;28.30;21.67;;;10.10;97.20;;;;;;5053215;28;20484;-58
2023/04/09 01:21:57;;;;;;;25.90;20.20;;;10.10;97.20;;;;;;5053021;28;20462;-58
2023/04/09 01:24:39;;;;;;;24.00;20.90;;;10.00;97.10;;;;;;5052951;28;20465;-58
2023/04/09 01:27:07;;;;;;;27.93;21.57;;;10.00;97.10;;;;;;5053013;28;20513;-58
2023/04/09 01:29:39;;;;;;;27.23;21.60;;;10.00;97.20;;;;;;5052680;28;20958;-58
2023/04/09 01:32:07;;;;;;;26.30;22.90;;;10.00;97.40;;;;;;5052993;28;20438;-58
2023/04/09 01:34:35;;;;;;;30.40;23.97;;;10.00;97.60;;;;;;5052552;28;20857;-58
2023/04/09 01:37:03;;;;;;;30.40;23.13;;;10.10;97.90;;;;;;5052969;28;20462;-58
2023/04/09 01:39:31;;;;;;;32.37;24.83;;;10.10;98.10;;;;;;5052982;28;20532;-58
2023/04/09 01:41:57;;;;;;;28.93;23.60;;;10.10;98.30;;;;;;5052582;28;20927;-58
2023/04/09 01:44:25;;;;;;;32.57;26.13;;;10.10;98.40;;;;;;5052902;28;20477;-58
2023/04/09 01:46:54;;;;;;;33.80;25.70;;;10.10;98.50;;;;;;5052850;28;20449;-58
2023/04/09 01:49:21;;;;;;;30.30;24.73;;;10.10;98.50;;;;;;5055674;28;20456;-58
2023/04/09 01:51:48;;;;;;;32.80;24.57;;;10.10;98.50;;;;;;5056504;28;20450;-58
2023/04/09 01:54:16;;;;;;;32.23;25.63;;;10.10;98.50;;;;;;5056489;28;20476;-58
2023/04/09 01:56:44;;;;;;;27.77;23.83;;;10.10;98.40;;;;;;5056502;28;20998;-58
2023/04/09 01:59:11;;;;;;;29.30;24.30;;;10.10;98.30;;;;;;5056152;28;20445;-58
2023/04/09 02:01:42;;;;;;;29.43;23.80;;;10.00;98.20;;;;;;5056397;28;20530;-58
2023/04/09 02:04:16;;;;;;;29.40;24.63;;;10.00;98.20;;;;;;5056887;28;20465;-58
2023/04/09 02:06:48;;;;;;;31.30;25.77;;;10.00;98.20;;;;;;5056014;28;20819;-58
2023/04/09 02:09:18;;;;;;;29.73;25.30;;;10.00;98.10;;;;;;5056337;28;20429;-58
2023/04/09 02:11:48;;;;;;;30.07;25.30;;;10.00;98.10;;;;;;5056239;28;20430;-58
2023/04/09 02:14:16;;;;;;;33.43;27.17;;;10.00;98.10;;;;;;5056104;28;20990;-58
2023/04/09 02:16:43;;;;;;;33.20;26.13;;;10.00;98.10;;;;;;5056180;28;20454;-58
2023/04/09 02:19:11;;;;;;;30.83;26.23;;;9.90;98.50;;;;;;5056009;28;20507;-58
2023/04/09 02:21:38;;;;;;;27.50;21.43;;;9.90;98.40;;;;;;5055956;28;20555;-58
2023/04/09 02:24:05;;;;;;;27.60;21.20;;;9.80;98.30;;;;;;5055910;28;20874;-58
2023/04/09 02:26:31;;;;;;;24.77;20.57;;;9.80;98.10;;;;;;5055951;28;20445;-58
2023/04/09 02:28:58;;;;;;;22.60;19.47;;;9.70;97.90;;;;;;5055541;28;20863;-58
2023/04/09 02:31:25;;;;;;;26.53;23.20;;;9.70;97.80;;;;;;5055574;28;20966;-58
2023/04/09 02:33:52;;;;;;;26.20;20.50;;;9.70;97.70;;;;;;5055448;28;20990;-58
2023/04/09 02:36:21;;;;;;;24.27;18.90;;;9.60;97.50;;;;;;5055810;28;20453;-58
2023/04/09 02:38:48;;;;;;;25.03;20.60;;;9.60;97.40;;;;;;5055713;28;20445;-58
2023/04/09 02:41:14;;;;;;;21.13;19.03;;;9.50;97.30;;;;;;5055333;28;20488;-58
2023/04/09 02:43:41;;;;;;;22.80;19.40;;;9.40;97.10;;;;;;5055243;28;21002;-58
2023/04/09 02:46:08;;;;;;;21.40;18.10;;;9.40;97.10;;;;;;5055699;28;20816;-58
2023/04/09 02:48:34;;;;;;;24.80;19.93;;;9.30;97.10;;;;;;5055577;28;20473;-58
2023/04/09 02:51:01;;;;;;;24.77;20.63;;;9.30;97.10;;;;;;5055488;28;20446;-58
2023/04/09 02:53:29;;;;;;;23.67;20.03;;;9.30;97.20;;;;;;5055383;28;20470;-58
2023/04/09 02:55:56;;;;;;;24.43;20.60;;;9.20;97.10;;;;;;5055497;28;20457;-58
2023/04/09 02:58:22;;;;;;;29.13;21.13;;;9.20;97.20;;;;;;5055400;28;20510;-58
2023/04/09 03:00:49;;;;;;;22.43;18.93;;;9.20;97.20;;;;;;5054684;28;20461;-58
2023/04/09 03:03:16;;;;;;;19.93;17.60;;;9.10;97.20;;;;;;5055184;28;20485;-58
2023/04/09 03:05:43;;;;;;;22.17;18.67;;;9.10;97.10;;;;;;5055071;28;20437;-58
2023/04/09 03:08:09;;;;;;;22.67;18.90;;;9.10;97.10;;;;;;5054979;28;20480;-58
2023/04/09 03:10:37;;;;;;;22.10;19.17;;;9.10;97.10;;;;;;5054924;28;20947;-58
2023/04/09 03:13:04;;;;;;;23.40;19.67;;;9.00;97.00;;;;;;5055044;28;20453;-58
2023/04/09 03:15:31;;;;;;;29.87;21.93;;;9.00;97.00;;;;;;5055223;28;20507;-58
2023/04/09 03:17:58;;;;;;;27.03;22.47;;;8.90;97.10;;;;;;5054979;28;20452;-58
2023/04/09 03:20:24;;;;;;;32.93;25.30;;;8.90;97.10;;;;;;5054923;28;20453;-58
2023/04/09 03:22:51;;;;;;;30.10;23.93;;;8.90;97.20;;;;;;5054896;28;20480;-58
2023/04/09 03:25:19;;;;;;;35.40;25.13;;;8.90;97.30;;;;;;5054824;28;20473;-58
2023/04/09 03:27:47;;;;;;;30.77;24.07;;;8.80;97.30;;;;;;5054788;28;20454;-58
2023/04/09 03:30:14;;;;;;;33.97;25.73;;;8.80;97.30;;;;;;5054437;28;20449;-58
2023/04/09 03:32:41;;;;;;;29.67;24.07;;;8.80;97.40;;;;;;5054666;28;20441;-58
2023/04/09 03:35:08;;;;;;;27.50;23.70;;;8.70;97.50;;;;;;5054254;28;20560;-58
2023/04/09 03:37:35;;;;;;;25.53;19.73;;;8.70;97.60;;;;;;5054897;28;20449;-58
2023/04/09 03:40:01;;;;;;;23.43;18.90;;;8.60;97.50;;;;;;5054667;28;20430;-58
2023/04/09 03:42:28;;;;;;;21.73;18.43;;;8.60;97.50;;;;;;5054092;28;20485;-58
2023/04/09 03:44:56;;;;;;;19.63;16.70;;;8.50;97.40;;;;;;5054381;28;20469;-58
2023/04/09 03:47:23;;;;;;;21.27;17.70;;;8.50;97.30;;;;;;5054476;28;20453;-58
2023/04/09 03:49:49;;;;;;;20.97;18.60;;;8.40;97.20;;;;;;5054072;28;20842;-58
2023/04/09 03:52:16;;;;;;;24.13;19.27;;;8.40;97.20;;;;;;5053999;28;20858;-58
2023/04/09 03:54:43;;;;;;;21.60;19.17;;;8.40;97.30;;;;;;5054176;28;20477;-58
2023/04/09 03:57:10;;;;;;;24.70;21.20;;;8.40;97.40;;;;;;5054285;28;20449;-58
2023/04/09 03:59:36;;;;;;;28.87;22.03;;;8.30;97.40;;;;;;5053902;28;20935;-58
2023/04/09 04:02:04;;;;;;;24.90;20.93;;;8.30;97.50;;;;;;5053754;28;20987;-58
2023/04/09 04:04:31;;;;;;;26.63;22.40;;;8.30;97.60;;;;;;5054097;28;20465;-58
2023/04/09 04:06:58;;;;;;;27.80;22.50;;;8.30;97.80;;;;;;5054225;28;20453;-58
2023/04/09 04:09:24;;;;;;;24.40;20.43;;;8.30;97.80;;;;;;5054026;28;20458;-58
2023/04/09 04:11:51;;;;;;;29.63;22.53;;;8.30;97.90;;;;;;5053068;28;20450;-58
2023/04/09 04:14:18;;;;;;;27.27;22.63;;;8.30;98.00;;;;;;5053874;28;20504;-58
2023/04/09 04:16:44;;;;;;;27.40;23.17;;;8.30;98.10;;;;;;5053914;28;20476;-58
2023/04/09 04:19:12;;;;;;;29.10;25.30;;;8.30;98.10;;;;;;5053615;28;20845;-58
2023/04/09 04:21:39;;;;;;;26.77;23.07;;;8.30;98.10;;;;;;5054065;28;20481;-58
2023/04/09 04:24:06;;;;;;;28.17;22.93;;;8.30;98.30;;;;;;5053678;28;20462;-58
2023/04/09 04:26:33;;;;;;;27.70;23.33;;;8.30;98.40;;;;;;5053762;28;20457;-58
2023/04/09 04:29:00;;;;;;;29.83;22.77;;;8.30;98.40;;;;;;5053708;28;20445;-58
2023/04/09 04:31:26;;;;;;;28.73;23.50;;;8.30;98.40;;;;;;5053739;28;20868;-58
2023/04/09 04:33:53;;;;;;;36.23;26.47;;;8.20;98.30;;;;;;5053456;28;20476;-58
2023/04/09 04:36:21;;;;;;;29.07;23.73;;;8.20;98.20;;;;;;5053697;28;20444;-58
2023/04/09 04:38:48;;;;;;;29.30;23.23;;;8.20;98.20;;;;;;5053692;28;20458;-58
2023/04/09 04:41:14;;;;;;;27.20;23.87;;;8.20;98.30;;;;;;5053499;28;20468;-58
2023/04/09 04:43:41;;;;;;;27.60;23.00;;;8.20;98.30;;;;;;5053955;28;20550;-58
2023/04/09 04:46:08;;;;;;;31.00;25.40;;;8.20;98.30;;;;;;5053952;28;20454;-58
2023/04/09 04:48:34;;;;;;;31.27;23.93;;;8.20;98.30;;;;;;5053647;28;20946;-58
2023/04/09 04:51:02;;;;;;;29.60;23.80;;;8.20;98.30;;;;;;5053416;28;20846;-58
2023/04/09 04:53:30;;;;;;;29.97;23.87;;;8.20;98.30;;;;;;5053326;28;20967;-58
2023/04/09 04:55:56;;;;;;;28.97;23.10;;;8.10;98.20;;;;;;5053696;28;20457;-58
2023/04/09 04:58:24;;;;;;;25.03;20.63;;;8.10;98.10;;;;;;5053592;28;20449;-58
2023/04/09 05:00:51;;;;;;;23.87;19.10;;;8.10;97.80;;;;;;5053059;28;20548;-58
2023/04/09 05:03:17;;;;;;;23.63;18.27;;;8.00;97.50;;;;;;5053104;28;20890;-58
2023/04/09 05:05:45;;;;;;;19.53;17.30;;;7.90;97.10;;;;;;5053300;28;20468;-58
2023/04/09 05:08:11;;;;;;;21.20;15.90;;;7.80;96.90;;;;;;5053208;28;20460;-58
2023/04/09 05:10:42;;;;;;;18.07;16.17;;;7.80;96.80;;;;;;5052921;28;20441;-58
2023/04/09 05:13:09;;;;;;;19.93;16.90;;;7.70;96.70;;;;;;5053113;28;20426;-59
2023/04/09 05:15:38;;;;;;;18.27;14.53;;;7.70;96.70;;;;;;5053137;28;20507;-58
2023/04/09 05:18:05;;;;;;;19.63;16.10;;;7.60;96.60;;;;;;5052835;28;20863;-58
2023/04/09 05:20:32;;;;;;;18.53;15.73;;;7.60;96.70;;;;;;5053233;28;20458;-58
2023/04/09 05:22:58;;;;;;;18.33;16.40;;;7.60;96.70;;;;;;5053136;28;20477;-58
2023/04/09 05:25:25;;;;;;;18.80;15.70;;;7.60;96.90;;;;;;5057143;28;20445;-58
2023/04/09 05:27:53;;;;;;;18.33;16.20;;;7.60;96.90;;;;;;5057053;28;20456;-58
2023/04/09 05:30:20;;;;;;;25.40;18.03;;;7.60;97.00;;;;;;5056976;28;20449;-58
2023/04/09 05:32:47;;;;;;;21.87;18.27;;;7.60;97.10;;;;;;5056682;28;20445;-58
2023/04/09 05:35:13;;;;;;;20.30;17.90;;;7.60;97.30;;;;;;5056578;28;20991;-58
2023/04/09 05:37:40;;;;;;;25.20;19.50;;;7.60;97.40;;;;;;5056711;28;20445;-58
2023/04/09 05:40:08;;;;;;;23.57;18.50;;;7.60;97.50;;;;;;5056868;28;20813;-58
2023/04/09 05:42:34;;;;;;;22.70;19.00;;;7.60;97.60;;;;;;5056441;28;20485;-58
2023/04/09 05:45:03;;;;;;;24.43;21.10;;;7.70;97.80;;;;;;5056708;28;20830;-58
2023/04/09 05:47:29;;;;;;;24.57;20.40;;;7.70;98.00;;;;;;5056745;28;20503;-58
2023/04/09 05:49:56;;;;;;;24.30;20.80;;;7.70;98.00;;;;;;5056720;28;20449;-58
2023/04/09 05:52:23;;;;;;;22.23;19.47;;;7.70;98.00;;;;;;5056456;28;20947;-58
2023/04/09 05:54:49;;;;;;;23.97;20.83;;;7.80;98.20;;;;;;5056645;28;20465;-58
2023/04/09 05:57:16;;;;;;;24.93;19.70;;;7.80;98.30;;;;;;5056608;28;20453;-58
2023/04/09 05:59:43;;;;;;;24.30;21.67;;;7.80;98.40;;;;;;5056622;28;20446;-58
2023/04/09 06:02:11;;;;;;;26.40;21.97;;;7.80;98.50;;;;;;5056309;28;20508;-58
2023/04/09 06:04:37;;;;;;;23.77;21.00;;;7.90;98.70;;;;;;5056344;28;20538;-58
2023/04/09 06:07:04;;;;;;;23.40;20.00;;;8.00;98.90;;;;;;5056439;28;20462;-58
2023/04/09 06:09:31;;;;;;;26.57;22.27;;;8.00;99.10;;;;;;5056532;28;20449;-58
2023/04/09 06:11:57;;;;;;;26.33;21.37;;;8.10;99.30;;;;;;5056984;28;20971;-58
2023/04/09 06:14:24;;;;;;;26.47;22.03;;;8.10;99.40;;;;;;5055947;28;20896;-58
2023/04/09 06:16:51;;;;;;;25.53;21.60;;;8.20;99.60;;;;;;5055953;28;20954;-58
2023/04/09 06:19:19;;;;;;;26.17;22.20;;;8.20;99.90;;;;;;5056223;28;20458;-58
2023/04/09 06:21:46;;;;;;;28.63;24.47;;;8.30;99.90;;;;;;5056281;28;20503;-58
2023/04/09 06:24:12;;;;;;;29.70;21.27;;;8.40;99.90;;;;;;5056063;28;20485;-58
2023/04/09 06:26:39;;;;;;;27.47;23.70;;;8.50;99.90;;;;;;5055761;28;20944;-58
2023/04/09 06:29:06;;;;;;;26.40;22.97;;;8.60;99.90;;;;;;5056008;28;20944;-58
2023/04/09 06:31:33;;;;;;;29.50;22.83;;;8.60;99.90;;;;;;5055662;28;20449;-58
2023/04/09 06:34:00;;;;;;;32.00;23.57;;;8.70;99.90;;;;;;5055864;28;20469;-59
2023/04/09 06:36:29;;;;;;;24.10;19.90;;;8.70;99.90;;;;;;5054665;28;20445;-59
2023/04/09 06:38:56;;;;;;;28.10;23.40;;;8.90;99.90;;;;;;5055891;28;20458;-59
2023/04/09 06:41:23;;;;;;;28.40;22.97;;;9.00;99.90;;;;;;5055738;28;20508;-58
2023/04/09 06:43:50;;;;;;;27.77;22.17;;;9.10;99.90;;;;;;5055513;28;20497;-58
2023/04/09 06:46:18;;;;;;;29.27;23.53;;;9.20;99.90;;;;;;5055959;28;20453;-58
2023/04/09 06:48:45;;;;;;;29.10;24.80;;;9.30;99.90;;;;;;5055823;28;20489;-58
2023/04/09 06:51:13;;;;;;;26.53;22.77;;;9.40;99.90;;;;;;5056224;28;20870;-58
2023/04/09 06:53:42;;;;;;;26.43;22.33;;;9.50;99.90;;;;;;5055478;28;20500;-59
2023/04/09 06:56:09;;;;;;;31.97;22.57;;;9.60;99.90;;;;;;5055514;28;20465;-58
2023/04/09 06:58:36;;;;;;;28.17;23.17;;;9.70;99.90;;;;;;5055392;28;20452;-58
2023/04/09 07:01:03;;;;;;;27.03;22.20;;;9.80;99.90;;;;;;5055244;28;20460;-59
2023/04/09 07:03:30;;;;;;;28.40;21.63;;;9.90;99.90;;;;;;5054857;28;20999;-59
2023/04/09 07:05:57;;;;;;;26.70;22.67;;;10.00;99.20;;;;;;5055294;28;20790;-58
2023/04/09 07:08:24;;;;;;;26.43;21.90;;;10.10;98.90;;;;;;5055260;28;20503;-59
2023/04/09 07:10:52;;;;;;;24.90;19.87;;;10.20;98.80;;;;;;5055147;28;20449;-59
2023/04/09 07:13:19;;;;;;;26.00;20.40;;;10.30;98.60;;;;;;5055101;28;20464;-59
2023/04/09 07:15:46;;;;;;;22.80;19.90;;;10.50;98.40;;;;;;5054836;28;20972;-58
2023/04/09 07:18:12;;;;;;;25.97;20.50;;;10.60;98.20;;;;;;5055044;28;20472;-58
2023/04/09 07:20:39;;;;;;;23.63;20.20;;;10.70;98.00;;;;;;5054976;28;20449;-59
2023/04/09 07:23:06;;;;;;;24.10;19.90;;;10.80;98.00;;;;;;5054734;28;20491;-59
2023/04/09 07:25:33;;;;;;;24.43;19.07;;;10.90;97.40;;;;;;5054501;28;20441;-59
2023/04/09 07:28:01;;;;;;;22.53;19.30;;;11.00;97.10;;;;;;5054574;28;20814;-59
2023/04/09 07:30:28;;;;;;;23.23;17.53;;;11.20;96.80;;;;;;5054860;28;20473;-58
2023/04/09 07:32:55;;;;;;;20.30;17.87;;;11.30;96.40;;;;;;5054782;28;20468;-59
2023/04/09 07:35:21;;;;;;;21.97;16.63;;;11.40;96.50;;;;;;5054543;28;20553;-58
2023/04/09 07:37:48;;;;;;;20.47;16.80;;;11.50;95.80;;;;;;5054618;28;20445;-59
2023/04/09 07:40:15;;;;;;;21.83;16.90;;;11.70;94.90;;;;;;5054676;28;20454;-58
2023/04/09 07:42:42;;;;;;;19.50;16.00;;;11.80;94.70;;;;;;5054203;28;20486;-59
2023/04/09 07:45:10;;;;;;;19.63;15.17;;;11.90;94.60;;;;;;5054457;28;20524;-58
2023/04/09 07:47:38;;;;;;;18.53;16.43;;;12.10;94.40;;;;;;5054154;28;20454;-58
2023/04/09 07:50:05;;;;;;;17.70;15.80;;;12.20;94.10;;;;;;5054384;28;20457;-59
2023/04/09 07:52:32;;;;;;;18.90;16.07;;;12.30;93.30;;;;;;5054123;28;20446;-58
2023/04/09 07:54:58;;;;;;;19.90;17.47;;;12.40;93.20;;;;;;5054366;28;20474;-58
2023/04/09 07:57:26;;;;;;;22.23;17.63;;;12.50;92.80;;;;;;5053971;28;20966;-58
2023/04/09 07:59:54;;;;;;;17.80;14.97;;;12.70;92.80;;;;;;5054105;28;20449;-59
2023/04/09 08:02:22;;;;;;;17.50;15.30;;;12.80;92.50;;;;;;5054162;28;20544;-58
2023/04/09 08:04:49;;;;;;;16.13;14.43;;;13.00;92.20;;;;;;5053927;28;20521;-59
2023/04/09 08:07:16;;;;;;;16.53;14.80;;;13.10;91.90;;;;;;5054099;28;20521;-59
2023/04/09 08:09:43;;;;;;;18.33;16.20;;;13.30;91.60;;;;;;5053847;28;20454;-59
2023/04/09 08:12:09;;;;;;;20.37;15.03;;;13.40;91.20;;;;;;5054059;28;20444;-58
2023/04/09 08:14:36;;;;;;;15.20;13.70;;;13.60;90.00;;;;;;5053913;28;20466;-58
2023/04/09 08:17:03;;;;;;;18.77;13.87;;;13.70;87.20;;;;;;5053987;28;20468;-58
2023/04/09 08:19:32;;;;;;;15.00;13.10;;;13.80;88.00;;;;;;5053822;28;20453;-58
2023/04/09 08:21:58;;;;;;;14.93;13.43;;;14.00;87.80;;;;;;5053761;28;20445;-58
2023/04/09 08:24:25;;;;;;;14.10;12.60;;;14.20;87.60;;;;;;5053703;28;20489;-58
2023/04/09 08:26:52;;;;;;;14.97;13.37;;;14.40;87.00;;;;;;5053872;28;20450;-58
2023/04/09 08:29:18;;;;;;;14.30;12.80;;;14.60;84.20;;;;;;5053809;28;20449;-58
2023/04/09 08:31:45;;;;;;;15.97;13.10;;;14.80;84.60;;;;;;5053461;28;20942;-58
2023/04/09 08:34:14;;;;;;;15.23;13.57;;;15.00;83.80;;;;;;5053691;28;20461;-58
2023/04/09 08:36:45;;;;;;;13.40;11.97;;;15.20;82.90;;;;;;5054310;28;20458;-58
2023/04/09 08:39:12;;;;;;;15.93;14.03;;;15.30;79.20;;;;;;5053451;28;20445;-58
2023/04/09 08:41:42;;;;;;;16.10;13.83;;;15.30;77.60;;;;;;5053317;28;20469;-58
2023/04/09 08:44:08;;;;;;;14.70;13.10;;;15.30;76.40;;;;;;5053148;28;21062;-58
2023/04/09 08:46:36;;;;;;;13.20;11.80;;;15.10;76.60;;;;;;5053542;28;20460;-58
2023/04/09 08:49:03;;;;;;;19.83;15.03;;;15.00;77.10;;;;;;5053498;28;20449;-58
2023/04/09 08:51:30;;;;;;;17.13;14.57;;;15.00;77.80;;;;;;5053428;28;20472;-58
2023/04/09 08:54:00;;;;;;;14.47;12.93;;;15.10;78.00;;;;;;5053210;28;20473;-58
2023/04/09 08:56:27;;;;;;;17.47;15.07;;;15.20;78.40;;;;;;5053355;28;20453;-58
2023/04/09 08:58:54;;;;;;;15.80;13.83;;;15.40;77.60;;;;;;5052474;28;20947;-58
2023/04/09 09:01:22;;;;;;;16.90;13.57;;;15.60;76.70;;;;;;5053485;28;20452;-58
2023/04/09 09:03:57;;;;;;;16.03;13.50;;;15.90;76.20;;;;;;5054117;28;20485;-58
2023/04/09 09:06:26;;;;;;;15.07;12.00;;;16.10;73.30;;;;;;5053294;28;20432;-58
2023/04/09 09:09:10;;;;;;;13.90;12.43;;;16.30;73.30;;;;;;5053201;28;20453;-58
2023/04/09 09:11:38;;;;;;;14.40;12.90;;;16.50;72.40;;;;;;5051342;28;20469;-58
2023/04/09 09:14:06;;;;;;;14.73;13.13;;;16.70;70.00;;;;;;5053294;28;20464;-58
2023/04/09 09:16:34;;;;;;;13.80;10.83;;;16.70;68.30;;;;;;5053205;28;20441;-58
2023/04/09 09:19:01;;;;;;;12.50;11.00;;;16.80;66.20;;;;;;5052834;28;20904;-58
2023/04/09 09:21:29;;;;;;;12.30;10.47;;;16.80;63.40;;;;;;5053110;28;20445;-58
2023/04/09 09:23:56;;;;;;;11.87;9.60;;;16.90;62.80;;;;;;5053022;28;20491;-58
2023/04/09 09:26:27;;;;;;;10.73;9.63;;;17.20;62.50;;;;;;5053159;28;20449;-58
2023/04/09 09:28:54;;;;;;;11.20;10.00;;;17.40;62.70;;;;;;5052699;28;20919;-59
2023/04/09 09:31:22;;;;;;;12.17;10.90;;;17.60;58.90;;;;;;5052981;28;20457;-58
2023/04/09 09:33:50;;;;;;;10.90;9.80;;;17.80;58.20;;;;;;5052900;28;20531;-59
2023/04/09 09:36:31;;;;;;;12.43;11.00;;;18.00;57.30;;;;;;5052919;28;20490;-59
2023/04/09 09:39:02;;;;;;;11.10;9.43;;;18.00;57.10;;;;;;5052933;28;20487;-59
2023/04/09 09:41:30;;;;;;;12.53;11.23;;;18.10;58.00;;;;;;5052689;28;20548;-59
2023/04/09 09:43:57;;;;;;;12.53;11.23;;;18.40;57.90;;;;;;5052797;28;20991;-58
2023/04/09 09:46:26;;;;;;;11.77;10.67;;;18.60;56.30;;;;;;5052947;28;20806;-58
2023/04/09 09:48:52;;;;;;;10.90;9.80;;;18.50;56.60;;;;;;5052849;28;20529;-58
2023/04/09 09:51:22;;;;;;;12.23;10.90;;;18.50;57.10;;;;;;5052805;28;20445;-58
2023/04/09 09:53:54;;;;;;;11.00;9.90;;;18.70;57.00;;;;;;5052744;28;20512;-59
2023/04/09 09:56:25;;;;;;;11.13;10.00;;;18.80;55.90;;;;;;5052748;28;20488;-58
2023/04/09 09:59:00;;;;;;;10.00;9.10;;;19.10;53.80;;;;;;5052795;28;20438;-59
2023/04/09 10:01:28;;;;;;;9.07;8.17;;;19.30;51.00;;;;;;5052756;28;20426;-58
2023/04/09 10:03:58;;;;;;;8.77;7.90;;;19.50;49.20;;;;;;5052324;28;20999;-58
2023/04/09 10:06:26;;;;;;;8.27;7.40;;;19.70;48.50;;;;;;5052730;28;20434;-59
2023/04/09 10:08:56;;;;;;;8.27;7.47;;;19.80;47.90;;;;;;5052681;28;20464;-59
2023/04/09 10:11:23;;;;;;;8.13;7.33;;;20.20;48.50;;;;;;5056231;28;20452;-59
2023/04/09 10:13:52;;;;;;;7.77;6.97;;;20.60;46.30;;;;;;5056194;28;20478;-59
2023/04/09 10:16:22;;;;;;;7.33;6.60;;;21.00;44.00;;;;;;5056398;28;20548;-59
2023/04/09 10:18:49;;;;;;;7.33;6.60;;;21.10;43.40;;;;;;5056272;28;20480;-59
2023/04/09 10:21:26;;;;;;;9.17;7.80;;;21.00;42.50;;;;;;5056149;28;20450;-59
2023/04/09 10:23:53;;;;;;;8.47;7.60;;;20.90;42.40;;;;;;5056036;28;20575;-59
2023/04/09 10:26:20;;;;;;;7.73;7.00;;;20.80;42.70;;;;;;5056085;28;20449;-58
2023/04/09 10:29:02;;;;;;;8.37;7.57;;;20.70;42.80;;;;;;5055960;28;20449;-59
2023/04/09 10:31:45;;;;;;;8.20;7.50;;;21.00;43.90;;;;;;5055727;28;20866;-59
2023/04/09 10:34:15;;;;;;;8.10;7.40;;;21.60;44.50;;;;;;5055924;28;20523;-59
2023/04/09 10:36:43;;;;;;;7.70;7.00;;;22.00;43.30;;;;;;5055959;28;20460;-59
2023/04/09 10:39:12;;;;;;;7.20;6.50;;;22.20;40.10;;;;;;5056047;28;20477;-59
2023/04/09 10:41:40;;;;;;;7.17;6.57;;;22.70;41.10;;;;;;5055573;28;20465;-59
2023/04/09 10:44:07;;;;;;;8.10;7.40;;;23.60;39.40;;;;;;5056021;28;20859;-59
2023/04/09 10:46:36;;;;;;;8.17;7.47;;;23.90;36.10;;;;;;5055706;28;20460;-59
2023/04/09 10:49:10;;;;;;;7.17;6.57;;;23.80;33.70;;;;;;5055426;28;20939;-59
2023/04/09 10:51:38;;;;;;;7.60;6.90;;;23.70;35.00;;;;;;5055238;28;20938;-59
2023/04/09 10:54:05;;;;;;;8.57;5.90;;;23.60;37.10;;;;;;5055146;28;20970;-59
2023/04/09 10:56:33;;;;;;;7.13;6.53;;;23.60;38.00;;;;;;5055448;28;20514;-59
2023/04/09 10:58:59;;;;;;;7.40;6.70;;;23.40;38.70;;;;;;5055454;28;20449;-59
2023/04/09 11:01:27;;;;;;;7.37;6.77;;;23.20;39.20;;;;;;5055476;28;20441;-59
2023/04/09 11:04:09;;;;;;;7.57;6.87;;;23.10;39.50;;;;;;5055547;28;20562;-59
2023/04/09 11:06:37;;;;;;;6.13;5.60;;;23.10;39.60;;;;;;5055454;28;20469;-59
2023/04/09 11:09:03;;;;;;;6.03;5.53;;;23.10;39.90;;;;;;5055491;28;20453;-59
2023/04/09 11:11:31;;;;;;;12.10;7.80;;;23.50;39.40;;;;;;5055243;28;20503;-59
2023/04/09 11:14:00;;;;;;;6.80;6.20;;;24.10;34.10;;;;;;5055363;28;20523;-59
2023/04/09 11:16:29;;;;;;;7.07;6.37;;;24.60;35.90;;;;;;5055368;28;20816;-59
2023/04/09 11:18:56;;;;;;;6.90;6.30;;;24.70;35.80;;;;;;5055345;28;20865;-59
2023/04/09 11:21:27;;;;;;;7.07;6.47;;;24.90;33.50;;;;;;5054424;28;20445;-59
2023/04/09 11:23:54;;;;;;;7.03;6.43;;;25.00;33.80;;;;;;5054919;28;20516;-57
2023/04/09 11:26:25;;;;;;;7.97;7.17;;;25.40;35.30;;;;;;5054879;28;20446;-57
2023/04/09 11:28:56;;;;;;;7.57;6.90;;;26.10;32.50;;;;;;5054937;28;20438;-57
2023/04/09 11:31:27;;;;;;;8.00;7.30;;;26.50;31.20;;;;;;5054807;28;20461;-57
2023/04/09 11:33:54;;;;;;;7.63;6.83;;;27.30;29.60;;;;;;5054741;28;20466;-57
2023/04/09 11:36:21;;;;;;;6.70;6.20;;;28.00;30.00;;;;;;5054759;28;20796;-57
2023/04/09 11:38:50;;;;;;;7.80;7.20;;;28.50;29.90;;;;;;5054683;28;20460;-57
2023/04/09 11:41:16;;;;;;;6.13;5.63;;;28.70;28.30;;;;;;5054346;28;20507;-57
2023/04/09 11:43:43;;;;;;;6.37;5.97;;;28.50;27.30;;;;;;5054425;28;20531;-57
2023/04/09 11:46:10;;;;;;;8.53;6.83;;;28.40;28.50;;;;;;5054479;28;20449;-57
2023/04/09 11:48:37;;;;;;;7.67;6.97;;;28.00;26.90;;;;;;5054474;28;20456;-57
2023/04/09 11:51:05;;;;;;;7.13;6.50;;;28.20;28.60;;;;;;5054430;28;20459;-58
2023/04/09 11:53:31;;;;;;;7.67;6.97;;;29.00;28.10;;;;;;5054365;28;20480;-57
2023/04/09 11:56:00;;;;;;;6.40;5.90;;;29.80;25.50;;;;;;5054419;28;20497;-58
2023/04/09 11:58:27;;;;;;;7.70;7.13;;;29.90;25.30;;;;;;5053969;28;20939;-60
2023/04/09 12:00:55;;;;;;;7.70;7.10;;;29.80;25.10;;;;;;5054260;28;20445;-59
2023/04/09 12:03:29;;;;;;;6.40;5.90;;;29.90;24.50;;;;;;5054183;28;20568;-59
2023/04/09 12:05:56;;;;;;;6.80;6.30;;;30.30;25.50;;;;;;5054175;28;20552;-59
2023/04/09 12:08:23;;;;;;;8.57;7.87;;;31.20;25.90;;;;;;5054137;28;20452;-57
2023/04/09 12:10:50;;;;;;;9.07;7.50;;;32.10;23.70;;;;;;5054379;28;20872;-57
2023/04/09 12:13:18;;;;;;;9.50;8.60;;;32.00;22.40;;;;;;5053646;28;20437;-57
2023/04/09 12:15:48;;;;;;;7.20;6.60;;;31.60;22.70;;;;;;5054005;28;20463;-57
2023/04/09 12:18:15;;;;;;;7.53;6.93;;;30.90;23.30;;;;;;5053683;28;20851;-56
2023/04/09 12:20:43;;;;;;;6.90;6.30;;;30.60;25.20;;;;;;5053881;28;20460;-57
2023/04/09 12:23:11;;;;;;;6.87;6.17;;;30.60;25.90;;;;;;5053799;28;20520;-57
2023/04/09 12:25:40;;;;;;;7.50;6.90;;;31.30;25.70;;;;;;5053772;28;20487;-56
2023/04/09 12:28:14;;;;;;;6.87;6.30;;;32.20;25.00;;;;;;5053883;28;20472;-57
2023/04/09 12:30:43;;;;;;;8.00;7.40;;;33.50;23.00;;;;;;5053696;28;20430;-57
2023/04/09 12:33:10;;;;;;;7.80;7.10;;;34.20;20.60;;;;;;5052810;28;20441;-57
2023/04/09 12:35:37;;;;;;;8.20;7.40;;;33.60;20.20;;;;;;5053614;28;20441;-56
2023/04/09 12:38:04;;;;;;;8.80;8.20;;;32.40;20.90;;;;;;5053659;28;20484;-56